Time;durP1;ratioP1;P1;durP2;ratioP2;P2;SDS_P1;SDS_P2;PMS_P1;PMS_P2;Temp;Humidity;BMP_temperature;BMP_pressure;BME280_temperature;BME280_humidity;BME280_pressure;Samples;Min_cycle;Max_cycle;Signal;HPM_P1;HPM_P2
2022/05/29 00:02:03;;;;;;;3.07;0.50;;;13.50;99.90;;;;;;5034023;28;20210;-45
2022/05/29 00:04:29;;;;;;;2.67;0.50;;;13.50;99.90;;;;;;5032620;28;20222;-45
2022/05/29 00:07:00;;;;;;;0.47;0.30;;;13.50;99.90;;;;;;5034183;28;20680;-46
2022/05/29 00:09:33;;;;;;;1.60;0.30;;;13.50;99.90;;;;;;5032096;28;20200;-46
2022/05/29 00:12:01;;;;;;;0.37;0.33;;;13.50;99.90;;;;;;5034360;28;20213;-45
2022/05/29 00:14:29;;;;;;;1.30;0.40;;;13.50;99.90;;;;;;5033825;28;20545;-46
2022/05/29 00:16:58;;;;;;;0.40;0.40;;;13.40;99.90;;;;;;5026450;28;20580;-45
2022/05/29 00:19:26;;;;;;;4.13;0.40;;;13.40;99.90;;;;;;5033419;28;20581;-45
2022/05/29 00:21:54;;;;;;;1.00;0.40;;;13.40;99.90;;;;;;5032007;28;20206;-46
2022/05/29 00:24:21;;;;;;;0.50;0.40;;;13.40;99.90;;;;;;5032668;28;20195;-45
2022/05/29 00:26:49;;;;;;;1.77;0.40;;;13.40;99.90;;;;;;5033582;28;20673;-45
2022/05/29 00:29:16;;;;;;;1.93;0.40;;;13.40;99.90;;;;;;5032289;28;20289;-45
2022/05/29 00:31:43;;;;;;;0.77;0.47;;;13.40;99.90;;;;;;5034130;28;20257;-46
2022/05/29 00:34:11;;;;;;;0.40;0.40;;;13.40;99.90;;;;;;5014976;28;20257;-46
2022/05/29 00:36:42;;;;;;;1.07;0.97;;;13.40;99.90;;;;;;5033999;28;20248;-46
2022/05/29 00:39:11;;;;;;;0.80;0.60;;;13.40;99.90;;;;;;5034464;28;20234;-46
2022/05/29 00:41:39;;;;;;;0.57;0.40;;;13.30;99.90;;;;;;5032666;28;20199;-45
2022/05/29 00:44:15;;;;;;;1.20;0.40;;;13.30;99.90;;;;;;5034370;28;20206;-45
2022/05/29 00:46:45;;;;;;;1.70;0.70;;;13.40;99.90;;;;;;5034470;28;20268;-46
2022/05/29 00:49:15;;;;;;;1.90;0.40;;;13.40;99.90;;;;;;5032470;28;20619;-46
2022/05/29 00:51:47;;;;;;;1.30;0.60;;;13.30;99.90;;;;;;5033627;28;20549;-45
2022/05/29 00:54:16;;;;;;;1.10;0.50;;;13.30;99.90;;;;;;5031347;28;20245;-45
2022/05/29 00:56:43;;;;;;;3.43;0.53;;;13.20;99.90;;;;;;5033436;28;20198;-46
2022/05/29 00:59:27;;;;;;;2.73;0.50;;;13.20;99.90;;;;;;5026133;28;20214;-45
2022/05/29 01:02:00;;;;;;;0.47;0.47;;;13.20;99.90;;;;;;5032861;28;20669;-45
2022/05/29 01:04:31;;;;;;;0.60;0.50;;;13.10;99.90;;;;;;5033691;28;20248;-45
2022/05/29 01:07:02;;;;;;;0.70;0.70;;;13.20;99.90;;;;;;5033817;28;20206;-45
2022/05/29 01:09:30;;;;;;;0.50;0.50;;;13.20;99.90;;;;;;5032920;28;20260;-45
2022/05/29 01:12:11;;;;;;;3.10;0.77;;;13.10;99.90;;;;;;5033119;28;20552;-45
2022/05/29 01:14:48;;;;;;;1.77;0.60;;;13.10;99.90;;;;;;5033583;28;20205;-45
2022/05/29 01:17:24;;;;;;;2.93;0.40;;;13.00;99.90;;;;;;5013812;28;20745;-45
2022/05/29 01:20:07;;;;;;;0.97;0.43;;;12.90;99.90;;;;;;5017191;28;20263;-45
2022/05/29 01:23:00;;;;;;;3.23;0.50;;;12.80;99.90;;;;;;5033593;28;20200;-45
2022/05/29 01:25:49;;;;;;;1.53;0.40;;;12.70;99.90;;;;;;5032836;28;20239;-45
2022/05/29 01:28:35;;;;;;;0.60;0.50;;;12.70;99.90;;;;;;4987401;28;20218;-45
2022/05/29 01:31:09;;;;;;;1.07;0.77;;;12.60;99.90;;;;;;5032152;28;20660;-45
2022/05/29 01:33:44;;;;;;;0.30;0.30;;;12.60;99.90;;;;;;5033535;28;20263;-45
2022/05/29 01:36:19;;;;;;;1.70;0.40;;;12.50;99.90;;;;;;5033524;28;20644;-45
2022/05/29 01:38:53;;;;;;;2.10;0.40;;;12.40;99.90;;;;;;5030610;28;20232;-46
2022/05/29 01:41:24;;;;;;;1.53;0.30;;;12.30;99.90;;;;;;5031956;28;20274;-45
2022/05/29 01:43:58;;;;;;;0.40;0.40;;;12.30;99.90;;;;;;5031762;28;20271;-45
2022/05/29 01:46:31;;;;;;;4.23;0.47;;;12.30;99.90;;;;;;5032361;28;20685;-46
2022/05/29 01:49:01;;;;;;;2.47;0.50;;;12.10;99.90;;;;;;5033289;28;20589;-45
2022/05/29 01:51:37;;;;;;;1.13;0.30;;;12.00;99.90;;;;;;5030264;28;20285;-45
2022/05/29 01:54:11;;;;;;;1.67;0.50;;;12.00;99.90;;;;;;5032726;28;20226;-45
2022/05/29 01:56:43;;;;;;;1.53;0.40;;;11.90;99.90;;;;;;5033124;28;20205;-45
2022/05/29 01:59:16;;;;;;;0.30;0.30;;;11.90;99.90;;;;;;5033090;28;20643;-45
2022/05/29 02:01:49;;;;;;;0.87;0.47;;;11.90;99.90;;;;;;5031701;28;20209;-45
2022/05/29 02:04:29;;;;;;;1.53;0.40;;;11.90;99.90;;;;;;5026348;28;20198;-46
2022/05/29 02:09:47;;;;;;;1.90;0.50;;;11.80;99.90;;;;;;5031036;28;20284;-45
2022/05/29 02:12:17;;;;;;;0.50;0.27;;;11.70;99.90;;;;;;5025124;28;20200;-45
2022/05/29 02:14:54;;;;;;;1.80;0.30;;;11.70;99.90;;;;;;5032222;28;20210;-46
2022/05/29 02:17:26;;;;;;;0.50;0.40;;;11.60;99.90;;;;;;5030783;28;20206;-45
2022/05/29 02:19:58;;;;;;;0.43;0.40;;;11.60;99.90;;;;;;5031712;28;20673;-45
2022/05/29 02:22:27;;;;;;;0.53;0.40;;;11.60;99.90;;;;;;5032453;28;20254;-45
2022/05/29 02:24:58;;;;;;;2.40;0.50;;;11.60;99.90;;;;;;5032533;28;20201;-45
2022/05/29 02:27:30;;;;;;;1.23;0.57;;;11.60;99.90;;;;;;5030913;28;20273;-46
2022/05/29 02:30:02;;;;;;;2.00;0.40;;;11.60;99.90;;;;;;5029543;28;20209;-45
2022/05/29 02:32:42;;;;;;;2.43;0.30;;;11.50;99.90;;;;;;5031206;28;20222;-45
2022/05/29 02:35:17;;;;;;;2.83;1.80;;;11.50;99.90;;;;;;5032422;28;20198;-45
2022/05/29 02:37:50;;;;;;;2.30;0.47;;;11.60;99.90;;;;;;5032218;28;20300;-45
2022/05/29 02:40:23;;;;;;;4.33;0.60;;;11.50;99.90;;;;;;5029791;28;20202;-45
2022/05/29 02:43:03;;;;;;;3.20;0.60;;;11.30;99.90;;;;;;5030953;28;20738;-45
2022/05/29 02:45:38;;;;;;;1.70;0.50;;;11.20;99.90;;;;;;5031238;28;20215;-45
2022/05/29 02:48:12;;;;;;;4.40;1.30;;;11.20;99.90;;;;;;5030396;28;20231;-45
2022/05/29 02:50:45;;;;;;;0.70;0.70;;;11.20;99.90;;;;;;5031503;28;20198;-45
2022/05/29 02:53:13;;;;;;;2.00;0.80;;;11.20;99.90;;;;;;5021680;28;20630;-45
2022/05/29 02:55:42;;;;;;;1.07;0.70;;;11.20;99.90;;;;;;5023916;28;20243;-45
2022/05/29 02:58:18;;;;;;;2.97;0.97;;;11.30;99.90;;;;;;5030525;28;20218;-45
2022/05/29 03:01:10;;;;;;;1.47;0.50;;;11.30;99.90;;;;;;5023887;28;20204;-45
2022/05/29 03:03:45;;;;;;;1.00;0.50;;;11.40;99.90;;;;;;5030149;28;20204;-45
2022/05/29 03:06:24;;;;;;;6.13;1.63;;;11.60;99.90;;;;;;5030164;28;20239;-45
2022/05/29 03:09:06;;;;;;;0.63;0.50;;;11.50;99.90;;;;;;5030130;28;20225;-45
2022/05/29 03:11:39;;;;;;;0.80;0.80;;;11.60;99.90;;;;;;5029094;28;20260;-45
2022/05/29 03:14:11;;;;;;;0.63;0.47;;;11.50;99.90;;;;;;5029268;28;20193;-45
2022/05/29 03:16:49;;;;;;;1.30;1.20;;;11.60;99.90;;;;;;5030278;28;20189;-45
2022/05/29 03:19:27;;;;;;;4.23;1.00;;;11.60;99.90;;;;;;5023900;28;20780;-45
2022/05/29 03:22:06;;;;;;;1.17;0.97;;;11.70;99.90;;;;;;5024072;28;20660;-45
2022/05/29 03:24:40;;;;;;;3.47;0.97;;;11.70;99.90;;;;;;5028906;28;20204;-45
2022/05/29 03:27:14;;;;;;;2.00;0.80;;;11.70;99.90;;;;;;5031968;28;20224;-45
2022/05/29 03:29:46;;;;;;;2.33;0.80;;;11.70;99.90;;;;;;5032189;28;20206;-45
2022/05/29 03:32:16;;;;;;;2.20;0.60;;;11.70;99.90;;;;;;5028090;28;20262;-45
2022/05/29 03:34:43;;;;;;;2.73;1.10;;;11.80;99.90;;;;;;5031084;28;20200;-45
2022/05/29 03:37:10;;;;;;;2.90;0.80;;;11.80;99.90;;;;;;5034164;28;20675;-45
2022/05/29 03:39:37;;;;;;;1.43;1.03;;;11.90;99.90;;;;;;5034838;28;20198;-45
2022/05/29 03:42:05;;;;;;;2.93;0.93;;;11.90;99.90;;;;;;5027615;28;20213;-45
2022/05/29 03:44:33;;;;;;;3.60;1.10;;;11.90;99.90;;;;;;5031183;28;20193;-45
2022/05/29 03:47:04;;;;;;;4.90;1.17;;;12.00;99.90;;;;;;5032445;28;20712;-45
2022/05/29 03:49:32;;;;;;;1.13;0.50;;;12.00;99.90;;;;;;5031759;28;20247;-45
2022/05/29 03:51:59;;;;;;;0.97;0.60;;;12.00;99.90;;;;;;5025691;28;20663;-45
2022/05/29 03:54:26;;;;;;;1.53;0.60;;;12.10;99.90;;;;;;5032496;28;20205;-45
2022/05/29 03:56:55;;;;;;;2.27;1.10;;;12.10;99.90;;;;;;5034145;28;20578;-45
2022/05/29 03:59:22;;;;;;;2.43;1.30;;;12.10;99.90;;;;;;5030786;28;20219;-45
2022/05/29 04:01:49;;;;;;;1.03;0.60;;;12.20;99.90;;;;;;5031594;28;20263;-45
2022/05/29 04:04:16;;;;;;;2.60;0.80;;;12.20;99.90;;;;;;5033417;28;20247;-45
2022/05/29 04:06:44;;;;;;;5.30;1.00;;;12.20;99.90;;;;;;5034302;28;20703;-45
2022/05/29 04:12:05;;;;;;;2.60;0.80;;;12.10;99.90;;;;;;5027610;28;20206;-45
2022/05/29 04:14:33;;;;;;;3.80;1.30;;;12.10;99.90;;;;;;5033466;28;20243;-44
2022/05/29 04:17:01;;;;;;;1.90;1.07;;;12.00;99.90;;;;;;5027642;28;20917;-45
2022/05/29 04:19:28;;;;;;;3.13;0.90;;;12.00;99.90;;;;;;5034060;28;20752;-45
2022/05/29 04:22:00;;;;;;;2.93;1.00;;;11.90;99.90;;;;;;5026028;28;20204;-45
2022/05/29 04:24:28;;;;;;;2.77;1.17;;;12.00;99.90;;;;;;5021651;28;20254;-45
2022/05/29 04:26:55;;;;;;;2.57;0.90;;;11.90;99.90;;;;;;5025096;28;20603;-45
2022/05/29 04:29:22;;;;;;;1.97;1.00;;;12.00;99.90;;;;;;5024046;28;20269;-45
2022/05/29 04:34:34;;;;;;;2.73;1.63;;;12.20;99.90;;;;;;5030805;28;20202;-45
2022/05/29 04:37:02;;;;;;;1.27;0.97;;;12.10;99.90;;;;;;5033734;28;20205;-45
2022/05/29 04:39:32;;;;;;;3.97;1.30;;;12.20;99.90;;;;;;5033311;28;20209;-45
2022/05/29 04:42:01;;;;;;;5.50;1.23;;;12.30;99.90;;;;;;5030826;28;20196;-45
2022/05/29 04:44:30;;;;;;;4.23;0.90;;;12.30;99.90;;;;;;5030272;28;20235;-45
2022/05/29 04:47:00;;;;;;;0.73;0.70;;;12.30;99.90;;;;;;5033533;28;20665;-45
2022/05/29 04:49:27;;;;;;;4.10;0.93;;;12.30;99.90;;;;;;5033582;28;20453;-45
2022/05/29 04:51:58;;;;;;;3.23;0.90;;;12.30;99.90;;;;;;5024696;28;20207;-45
2022/05/29 04:54:26;;;;;;;4.30;1.00;;;12.40;99.90;;;;;;5033462;28;20240;-45
2022/05/29 04:56:56;;;;;;;1.70;1.00;;;12.40;99.90;;;;;;5033555;28;20656;-45
2022/05/29 04:59:23;;;;;;;2.00;0.90;;;12.40;99.90;;;;;;5032999;28;20263;-45
2022/05/29 05:01:50;;;;;;;3.70;0.90;;;12.40;99.90;;;;;;5028542;28;20266;-45
2022/05/29 05:04:17;;;;;;;2.63;0.90;;;12.30;99.90;;;;;;5033245;28;20205;-45
2022/05/29 05:06:44;;;;;;;2.70;1.27;;;12.40;99.90;;;;;;5032969;28;20225;-45
2022/05/29 05:09:11;;;;;;;1.03;1.03;;;12.40;99.90;;;;;;5033177;28;20263;-45
2022/05/29 05:11:39;;;;;;;2.60;1.27;;;12.50;99.90;;;;;;5029964;28;20745;-45
2022/05/29 05:14:06;;;;;;;2.10;0.90;;;12.50;99.90;;;;;;5033163;28;20635;-45
2022/05/29 05:16:33;;;;;;;1.27;1.17;;;12.30;99.90;;;;;;5032968;28;20633;-45
2022/05/29 05:19:00;;;;;;;0.63;0.63;;;12.30;99.90;;;;;;5018171;28;20730;-45
2022/05/29 05:21:27;;;;;;;1.83;1.00;;;12.20;99.90;;;;;;5032761;28;20200;-45
2022/05/29 05:23:54;;;;;;;2.57;1.00;;;12.20;99.90;;;;;;5030661;28;20272;-45
2022/05/29 05:26:21;;;;;;;1.80;0.90;;;12.30;99.90;;;;;;5032589;28;20221;-45
2022/05/29 05:28:49;;;;;;;4.20;1.00;;;12.40;99.90;;;;;;5032024;28;20230;-45
2022/05/29 05:31:16;;;;;;;2.50;1.20;;;12.40;99.90;;;;;;5032293;28;20612;-45
2022/05/29 05:33:43;;;;;;;1.43;0.97;;;12.40;99.90;;;;;;5032607;28;20201;-45
2022/05/29 05:36:11;;;;;;;3.30;0.90;;;12.50;99.90;;;;;;5013942;28;20198;-45
2022/05/29 05:38:38;;;;;;;2.13;1.13;;;12.50;99.90;;;;;;5047677;22;20236;-50
2022/05/29 05:41:05;;;;;;;2.67;1.10;;;12.60;99.90;;;;;;5038599;28;20251;-51
2022/05/29 05:43:32;;;;;;;4.30;0.97;;;12.60;99.90;;;;;;5035035;28;20204;-51
2022/05/29 05:46:01;;;;;;;8.37;1.10;;;12.70;99.90;;;;;;5032949;28;20248;-51
2022/05/29 05:48:30;;;;;;;3.10;0.80;;;12.70;99.90;;;;;;5033102;28;20278;-51
2022/05/29 05:50:57;;;;;;;1.07;0.83;;;12.60;99.90;;;;;;5037409;28;20200;-51
2022/05/29 05:53:24;;;;;;;2.93;1.20;;;12.70;99.90;;;;;;5032841;28;20194;-51
2022/05/29 05:55:51;;;;;;;2.33;1.33;;;12.80;99.90;;;;;;5032777;28;20611;-51
2022/05/29 05:58:18;;;;;;;1.60;0.97;;;12.80;99.90;;;;;;5032653;28;20264;-51
2022/05/29 06:00:46;;;;;;;1.83;0.70;;;12.80;99.90;;;;;;5039717;28;20270;-51
2022/05/29 06:03:15;;;;;;;1.47;0.70;;;12.80;99.90;;;;;;5035431;28;20250;-51
2022/05/29 06:05:42;;;;;;;4.83;1.73;;;12.80;99.90;;;;;;5034589;28;20194;-51
2022/05/29 06:08:10;;;;;;;1.37;1.03;;;12.90;99.90;;;;;;5033624;28;20235;-51
2022/05/29 06:10:37;;;;;;;4.67;0.80;;;12.90;99.90;;;;;;5036015;28;20204;-50
2022/05/29 06:13:05;;;;;;;1.90;1.43;;;13.00;99.90;;;;;;5033947;28;20627;-51
2022/05/29 06:15:32;;;;;;;4.20;0.77;;;13.10;99.90;;;;;;5032314;28;20198;-51
2022/05/29 06:18:00;;;;;;;1.80;1.23;;;13.20;99.90;;;;;;5032060;28;20769;-51
2022/05/29 06:20:28;;;;;;;2.93;1.00;;;13.30;99.90;;;;;;5048949;28;20204;-51
2022/05/29 06:22:55;;;;;;;3.43;1.10;;;13.40;99.90;;;;;;5051707;28;20205;-51
2022/05/29 06:25:22;;;;;;;3.10;1.33;;;13.50;99.90;;;;;;5051784;28;20314;-51
2022/05/29 06:27:49;;;;;;;2.53;0.83;;;13.40;99.90;;;;;;5051422;28;20304;-51
2022/05/29 06:30:17;;;;;;;2.07;1.30;;;13.30;99.90;;;;;;5049573;28;20197;-51
2022/05/29 06:32:44;;;;;;;2.57;1.93;;;13.30;99.90;;;;;;5050052;28;20682;-50
2022/05/29 06:35:13;;;;;;;1.63;0.90;;;13.60;99.90;;;;;;5049772;28;20197;-50
2022/05/29 06:37:42;;;;;;;2.47;1.23;;;13.70;99.90;;;;;;5051553;28;20338;-50
2022/05/29 06:40:11;;;;;;;1.93;0.90;;;13.90;99.90;;;;;;5050992;28;20204;-51
2022/05/29 06:42:38;;;;;;;2.37;1.03;;;14.10;99.90;;;;;;5051235;28;20202;-50
2022/05/29 06:45:08;;;;;;;2.30;0.90;;;14.10;99.90;;;;;;5051436;28;20212;-51
2022/05/29 06:47:35;;;;;;;1.73;1.07;;;14.00;99.90;;;;;;5048300;28;20953;-51
2022/05/29 06:50:03;;;;;;;1.33;0.83;;;14.10;99.90;;;;;;5050806;28;20194;-51
2022/05/29 06:52:32;;;;;;;1.93;1.03;;;14.10;99.90;;;;;;5050749;28;20741;-51
2022/05/29 06:55:02;;;;;;;0.93;0.90;;;14.20;99.90;;;;;;5050572;28;20216;-51
2022/05/29 06:57:41;;;;;;;2.10;0.93;;;14.50;99.90;;;;;;5050138;28;20261;-50
2022/05/29 07:08:27;;;;;;;1.20;0.90;;;16.50;99.90;;;;;;5049720;28;20232;-50
2022/05/29 07:10:57;;;;;;;2.17;1.20;;;16.60;99.90;;;;;;5050317;28;20210;-50
2022/05/29 07:13:24;;;;;;;1.37;1.27;;;17.10;99.90;;;;;;5048775;28;20197;-50
2022/05/29 07:15:51;;;;;;;1.53;1.40;;;18.00;99.90;;;;;;5050092;28;20258;-51
2022/05/29 07:18:18;;;;;;;3.03;0.90;;;19.30;99.90;;;;;;5048507;28;20772;-51
2022/05/29 07:20:45;;;;;;;1.67;1.57;;;19.10;99.90;;;;;;5051138;28;20194;-51
2022/05/29 07:23:14;;;;;;;1.33;1.23;;;17.90;99.90;;;;;;5051136;28;20252;-50
2022/05/29 07:25:42;;;;;;;3.30;1.53;;;17.80;99.90;;;;;;5050984;28;20233;-51
2022/05/29 07:28:10;;;;;;;2.90;1.40;;;17.20;99.90;;;;;;5049483;28;20253;-51
2022/05/29 07:30:37;;;;;;;2.07;1.90;;;16.90;99.90;;;;;;5049081;28;20287;-50
2022/05/29 07:33:05;;;;;;;1.23;1.23;;;16.70;99.90;;;;;;5050408;28;20205;-51
2022/05/29 07:35:31;;;;;;;2.07;1.33;;;16.20;99.90;;;;;;5051022;28;20268;-51
2022/05/29 07:37:58;;;;;;;10.07;1.67;;;15.80;99.90;;;;;;5049300;28;20287;-51
2022/05/29 07:40:26;;;;;;;1.60;1.50;;;15.80;99.90;;;;;;5048561;28;20202;-50
2022/05/29 07:45:38;;;;;;;3.53;1.03;;;16.50;99.90;;;;;;5050210;28;20208;-51
2022/05/29 07:48:06;;;;;;;3.60;1.27;;;17.00;99.90;;;;;;5049389;28;20222;-51
2022/05/29 07:50:33;;;;;;;1.93;1.03;;;17.40;99.90;;;;;;5048908;28;20203;-51
2022/05/29 07:53:00;;;;;;;1.27;1.17;;;17.70;99.90;;;;;;5049091;28;20256;-51
2022/05/29 07:55:27;;;;;;;3.47;1.00;;;17.90;99.90;;;;;;5058820;28;20248;-51
2022/05/29 07:57:54;;;;;;;2.30;1.03;;;17.40;99.90;;;;;;5048321;28;20734;-51
2022/05/29 08:00:22;;;;;;;4.10;1.33;;;17.40;99.90;;;;;;5044651;28;20272;-52
2022/05/29 08:02:51;;;;;;;1.43;1.17;;;17.50;99.90;;;;;;5048209;28;20209;-51
2022/05/29 08:05:20;;;;;;;2.97;1.20;;;17.20;99.90;;;;;;5056392;28;20255;-52
2022/05/29 08:07:48;;;;;;;3.33;1.13;;;17.10;99.90;;;;;;5064334;28;20226;-51
2022/05/29 08:10:17;;;;;;;2.03;1.53;;;16.60;99.90;;;;;;5047403;28;20194;-51
2022/05/29 08:12:45;;;;;;;2.13;1.53;;;16.40;99.90;;;;;;5052916;28;20251;-51
2022/05/29 08:15:12;;;;;;;4.00;1.30;;;16.50;99.90;;;;;;5052246;28;20362;-52
2022/05/29 08:17:40;;;;;;;1.83;1.47;;;16.60;99.90;;;;;;5053030;28;20190;-51
2022/05/29 08:20:11;;;;;;;2.27;1.43;;;16.90;99.90;;;;;;5049562;28;20252;-52
2022/05/29 08:22:38;;;;;;;1.23;1.13;;;17.10;99.90;;;;;;5050918;28;20271;-51
2022/05/29 08:30:46;;;;;;;1.53;1.07;;;16.60;99.90;;;;;;5039409;28;20217;-51
2022/05/29 08:33:15;;;;;;;2.67;1.33;;;16.60;99.90;;;;;;5049643;28;20201;-50
2022/05/29 08:35:46;;;;;;;3.43;1.60;;;16.60;99.90;;;;;;5047331;28;20191;-51
2022/05/29 08:38:15;;;;;;;1.50;1.50;;;16.40;99.90;;;;;;5035711;28;20675;-51
2022/05/29 08:40:44;;;;;;;1.90;1.80;;;16.60;99.90;;;;;;5052718;28;20198;-50
2022/05/29 08:43:15;;;;;;;4.80;1.40;;;16.50;99.90;;;;;;5038431;28;20195;-51
2022/05/29 08:45:43;;;;;;;2.50;1.50;;;16.40;99.90;;;;;;5040659;28;20723;-51
2022/05/29 08:48:11;;;;;;;5.30;2.10;;;16.40;99.90;;;;;;5036836;28;20229;-51
2022/05/29 08:50:48;;;;;;;2.00;1.03;;;16.70;99.90;;;;;;5037163;28;20273;-51
2022/05/29 08:53:25;;;;;;;6.73;1.33;;;16.70;99.90;;;;;;5033850;28;20206;-51
2022/05/29 08:55:57;;;;;;;3.63;1.30;;;17.20;99.90;;;;;;5048482;28;20196;-51
2022/05/29 08:58:30;;;;;;;3.63;1.90;;;18.30;99.90;;;;;;5047384;28;20214;-51
2022/05/29 09:01:07;;;;;;;2.67;1.43;;;19.30;99.90;;;;;;5045627;28;20234;-51
2022/05/29 09:04:00;;;;;;;4.73;1.37;;;20.20;99.90;;;;;;5044335;28;20260;-51
2022/05/29 09:06:33;;;;;;;1.70;1.23;;;20.60;99.90;;;;;;5039277;28;20198;-52
2022/05/29 09:09:07;;;;;;;1.80;1.00;;;19.90;99.90;;;;;;5052353;28;20261;-51
2022/05/29 09:11:39;;;;;;;2.87;1.30;;;19.20;99.90;;;;;;5050160;28;20209;-51
2022/05/29 09:14:13;;;;;;;1.90;1.30;;;19.00;99.90;;;;;;5038588;28;20659;-50
2022/05/29 09:16:44;;;;;;;2.70;1.17;;;19.80;99.90;;;;;;5037228;28;20242;-51
2022/05/29 09:19:23;;;;;;;4.50;1.13;;;19.70;99.90;;;;;;5045264;28;20213;-51
2022/05/29 09:22:00;;;;;;;2.40;0.90;;;20.00;99.90;;;;;;5041723;28;20206;-52
2022/05/29 09:24:44;;;;;;;1.93;1.23;;;19.70;99.90;;;;;;5037436;28;20206;-51
2022/05/29 09:27:11;;;;;;;3.13;1.30;;;19.80;99.90;;;;;;5043457;28;20197;-50
2022/05/29 09:29:39;;;;;;;1.53;1.00;;;19.30;99.90;;;;;;5044153;28;20227;-51
2022/05/29 09:32:08;;;;;;;4.73;1.47;;;19.50;99.90;;;;;;5040967;28;20203;-52
2022/05/29 09:34:35;;;;;;;1.23;1.00;;;19.40;99.90;;;;;;5044250;28;20664;-50
2022/05/29 09:37:11;;;;;;;1.67;1.47;;;19.50;99.90;;;;;;5070975;28;20259;-50
2022/05/29 09:39:42;;;;;;;1.97;0.90;;;20.00;99.90;;;;;;5060696;28;20225;-50
2022/05/29 09:42:16;;;;;;;2.30;1.27;;;20.20;99.90;;;;;;5059113;28;20292;-50
2022/05/29 09:45:05;;;;;;;1.40;0.90;;;20.80;99.90;;;;;;5069063;28;20250;-50
2022/05/29 09:50:19;;;;;;;2.93;1.10;;;22.60;95.20;;;;;;5020238;28;20193;-50
2022/05/29 09:52:48;;;;;;;1.23;0.80;;;23.50;94.60;;;;;;5051109;28;20272;-50
2022/05/29 09:55:25;;;;;;;2.07;0.80;;;23.50;93.10;;;;;;5058858;28;20322;-51
2022/05/29 09:57:56;;;;;;;1.23;0.90;;;22.60;94.10;;;;;;5058398;28;20193;-50
2022/05/29 10:00:30;;;;;;;2.23;0.80;;;22.10;95.10;;;;;;5059353;28;20262;-50
2022/05/29 10:02:59;;;;;;;2.53;1.30;;;21.10;95.10;;;;;;5055110;28;20245;-50
2022/05/29 10:05:28;;;;;;;1.80;0.70;;;20.50;96.60;;;;;;5050248;28;20210;-50
2022/05/29 10:07:58;;;;;;;1.90;0.93;;;20.00;94.90;;;;;;5062306;28;20606;-50
2022/05/29 10:10:32;;;;;;;1.77;0.90;;;19.40;95.40;;;;;;5059199;28;20240;-50
2022/05/29 10:13:01;;;;;;;2.80;1.53;;;19.40;98.10;;;;;;5067157;28;20224;-50
2022/05/29 10:15:40;;;;;;;3.13;1.63;;;19.10;98.70;;;;;;5065785;28;20201;-51
2022/05/29 10:18:31;;;;;;;1.67;0.80;;;18.60;98.60;;;;;;5053677;28;20217;-51
2022/05/29 10:21:10;;;;;;;0.80;0.80;;;18.40;98.90;;;;;;5057754;28;20775;-51
2022/05/29 10:23:40;;;;;;;2.50;1.10;;;18.40;99.90;;;;;;5051138;28;20603;-51
2022/05/29 10:26:13;;;;;;;2.20;1.50;;;18.60;99.90;;;;;;5051630;28;20216;-51
2022/05/29 10:28:42;;;;;;;2.03;1.33;;;18.30;99.90;;;;;;5043629;28;20225;-51
2022/05/29 10:31:13;;;;;;;1.97;1.37;;;18.20;99.90;;;;;;5047237;28;20199;-51
2022/05/29 10:33:41;;;;;;;1.40;1.30;;;18.30;99.90;;;;;;5031641;28;20345;-51
2022/05/29 10:36:14;;;;;;;4.43;2.27;;;18.20;99.90;;;;;;5031710;28;20201;-50
2022/05/29 10:38:44;;;;;;;2.43;1.63;;;17.80;99.90;;;;;;5041105;28;20221;-51
2022/05/29 10:41:11;;;;;;;1.90;1.57;;;18.00;99.90;;;;;;5054980;28;20655;-51
2022/05/29 10:43:45;;;;;;;2.03;1.37;;;18.20;99.90;;;;;;5047166;28;20198;-51
2022/05/29 10:46:19;;;;;;;1.60;1.23;;;18.40;97.70;;;;;;5036507;28;21025;-51
2022/05/29 10:49:17;;;;;;;2.10;1.67;;;18.30;98.20;;;;;;5040284;28;20267;-51
2022/05/29 10:52:09;;;;;;;1.20;1.03;;;18.70;99.90;;;;;;5046528;28;20619;-51
2022/05/29 10:54:58;;;;;;;1.80;0.90;;;19.10;99.90;;;;;;5034539;28;20248;-51
2022/05/29 10:57:45;;;;;;;1.13;1.00;;;19.40;99.90;;;;;;5037925;28;20273;-51
2022/05/29 11:00:25;;;;;;;0.83;0.80;;;19.50;99.90;;;;;;5044403;28;20732;-51
2022/05/29 11:03:30;;;;;;;1.83;1.33;;;19.30;99.90;;;;;;5040032;28;20213;-51
2022/05/29 11:06:35;;;;;;;1.67;0.70;;;19.10;99.90;;;;;;5030938;28;20197;-51
2022/05/29 11:09:22;;;;;;;3.13;1.00;;;19.30;99.20;;;;;;5047328;28;20275;-51
2022/05/29 11:12:00;;;;;;;1.13;0.60;;;19.10;99.90;;;;;;5039099;28;20259;-51
2022/05/29 11:14:53;;;;;;;1.50;0.90;;;19.10;99.90;;;;;;5040764;28;20203;-51
2022/05/29 11:17:29;;;;;;;2.47;0.80;;;19.50;98.10;;;;;;5037468;28;20613;-51
2022/05/29 11:20:11;;;;;;;0.93;0.93;;;20.00;99.30;;;;;;5043209;28;20217;-51
2022/05/29 11:22:43;;;;;;;3.67;1.50;;;20.40;99.90;;;;;;5043863;28;20259;-51
2022/05/29 11:25:27;;;;;;;1.73;0.80;;;20.40;95.20;;;;;;5043631;28;20193;-51
2022/05/29 11:28:17;;;;;;;1.33;1.13;;;20.70;97.20;;;;;;5042950;28;20232;-51
2022/05/29 11:30:59;;;;;;;2.80;0.70;;;20.80;94.50;;;;;;5038172;28;20206;-51
2022/05/29 11:33:43;;;;;;;2.43;1.47;;;20.30;98.00;;;;;;5042334;28;20305;-51
2022/05/29 11:36:24;;;;;;;0.80;0.80;;;20.20;99.90;;;;;;5042884;28;20202;-51
2022/05/29 11:39:16;;;;;;;1.90;0.70;;;20.00;93.90;;;;;;5048928;28;20230;-51
2022/05/29 11:41:48;;;;;;;4.13;0.90;;;19.70;94.00;;;;;;5045310;28;20202;-51
2022/05/29 11:44:25;;;;;;;1.43;1.00;;;18.90;97.10;;;;;;5041738;28;20199;-50
2022/05/29 11:52:53;;;;;;;3.40;0.73;;;16.20;99.90;;;;;;4985011;28;20212;-50
2022/05/29 11:55:23;;;;;;;0.90;0.80;;;15.20;99.90;;;;;;5027793;28;20271;-50
2022/05/29 11:57:55;;;;;;;0.80;0.57;;;14.70;99.90;;;;;;5049426;28;20225;-50
2022/05/29 12:00:39;;;;;;;0.80;0.50;;;14.20;99.90;;;;;;5043059;28;20209;-50
2022/05/29 12:03:20;;;;;;;3.33;0.70;;;14.00;99.90;;;;;;5045998;28;20257;-49
2022/05/29 12:05:53;;;;;;;1.10;0.73;;;14.00;99.90;;;;;;5039874;28;20210;-50
2022/05/29 12:08:25;;;;;;;1.63;1.50;;;14.00;99.90;;;;;;5044978;28;20651;-50
2022/05/29 12:10:58;;;;;;;1.70;0.60;;;14.00;99.90;;;;;;5044798;28;20226;-50
2022/05/29 12:13:29;;;;;;;1.13;0.50;;;14.00;99.90;;;;;;5051223;28;20201;-50
2022/05/29 12:16:02;;;;;;;0.50;0.50;;;14.30;99.90;;;;;;5044260;28;20226;-50
2022/05/29 12:18:38;;;;;;;0.47;0.40;;;14.20;99.90;;;;;;5041406;28;20506;-50
2022/05/29 12:21:06;;;;;;;0.67;0.63;;;14.30;99.90;;;;;;5051504;28;20209;-51
2022/05/29 12:23:38;;;;;;;1.03;0.50;;;14.60;99.90;;;;;;5060485;28;20725;-50
2022/05/29 12:26:08;;;;;;;0.30;0.30;;;14.80;99.90;;;;;;5057757;28;20689;-51
2022/05/29 12:28:43;;;;;;;0.40;0.40;;;15.00;99.90;;;;;;5053245;28;20710;-51
2022/05/29 12:31:18;;;;;;;1.97;0.70;;;15.20;99.90;;;;;;5049432;28;20213;-51
2022/05/29 12:33:47;;;;;;;1.67;0.50;;;15.50;99.90;;;;;;5054013;28;20255;-51
2022/05/29 12:36:25;;;;;;;1.50;0.70;;;15.40;99.90;;;;;;5051146;28;20194;-51
2022/05/29 12:39:19;;;;;;;3.03;0.60;;;15.20;99.90;;;;;;5049918;28;20703;-50
2022/05/29 12:42:19;;;;;;;0.93;0.93;;;15.40;99.90;;;;;;5038840;28;20206;-51
2022/05/29 12:45:10;;;;;;;0.50;0.50;;;15.50;99.90;;;;;;5052859;28;20695;-51
2022/05/29 12:47:54;;;;;;;0.63;0.50;;;15.60;99.90;;;;;;5051670;28;20204;-51
2022/05/29 12:50:38;;;;;;;0.60;0.60;;;15.80;99.90;;;;;;5049469;28;20274;-51
2022/05/29 12:53:41;;;;;;;0.60;0.60;;;15.80;99.90;;;;;;5048236;28;20201;-51
2022/05/29 12:56:28;;;;;;;0.60;0.60;;;15.70;99.90;;;;;;5040756;28;20210;-50
2022/05/29 12:59:15;;;;;;;0.60;0.60;;;15.70;99.90;;;;;;5037104;28;20219;-52
2022/05/29 13:02:04;;;;;;;0.63;0.50;;;15.70;99.90;;;;;;5033634;28;20612;-51
2022/05/29 13:05:11;;;;;;;2.03;0.50;;;15.90;99.90;;;;;;5041833;28;20198;-51
2022/05/29 13:07:59;;;;;;;1.47;0.50;;;16.10;99.90;;;;;;5033789;28;20198;-51
2022/05/29 13:10:32;;;;;;;0.60;0.60;;;16.30;99.90;;;;;;5042189;28;20279;-51
2022/05/29 13:13:05;;;;;;;1.40;0.60;;;16.50;99.90;;;;;;5043940;28;20682;-51
2022/05/29 13:15:34;;;;;;;0.90;0.57;;;16.70;99.90;;;;;;5039433;28;20202;-52
2022/05/29 13:18:16;;;;;;;0.70;0.70;;;16.70;99.90;;;;;;5039005;28;20225;-52
2022/05/29 13:21:07;;;;;;;0.40;0.40;;;16.60;99.90;;;;;;5044455;28;20205;-52
2022/05/29 13:23:36;;;;;;;2.73;0.70;;;16.70;99.90;;;;;;5033494;28;20249;-52
2022/05/29 13:26:17;;;;;;;2.60;0.57;;;16.70;99.90;;;;;;5035790;28;20273;-51
2022/05/29 13:28:59;;;;;;;1.07;0.67;;;16.60;99.90;;;;;;5033434;28;20699;-51
2022/05/29 13:31:27;;;;;;;1.63;0.70;;;16.50;99.90;;;;;;5046707;28;20691;-51
2022/05/29 13:34:28;;;;;;;0.50;0.50;;;16.20;99.90;;;;;;5051730;28;20198;-51
2022/05/29 13:37:08;;;;;;;6.23;0.67;;;16.00;99.90;;;;;;5036243;28;20553;-51
2022/05/29 13:39:57;;;;;;;0.40;0.40;;;15.70;99.90;;;;;;5037345;28;20753;-52
2022/05/29 13:42:28;;;;;;;0.60;0.60;;;15.40;99.90;;;;;;5052743;28;20205;-52
2022/05/29 13:44:55;;;;;;;0.83;0.43;;;15.30;99.90;;;;;;5052874;28;20637;-51
2022/05/29 13:47:43;;;;;;;0.40;0.40;;;15.10;99.90;;;;;;5051935;28;20228;-51
2022/05/29 13:50:27;;;;;;;0.73;0.57;;;14.90;99.90;;;;;;5050912;28;20213;-51
2022/05/29 13:52:58;;;;;;;0.50;0.40;;;14.80;99.90;;;;;;5051239;28;20198;-51